createdAt,value
2022-10-06T00:00:06.012Z,11.14
2022-10-06T00:03:28.232Z,11.10
2022-10-06T00:06:30.169Z,11.03
2022-10-06T00:09:32.636Z,11.03
2022-10-06T00:12:42.745Z,11.01
2022-10-06T00:15:45.008Z,10.98
2022-10-06T00:18:47.443Z,10.88
2022-10-06T00:21:49.723Z,10.92
2022-10-06T00:24:51.750Z,10.90
2022-10-06T00:27:54.827Z,10.96
2022-10-06T00:30:56.935Z,10.89
2022-10-06T00:33:59.127Z,10.82
2022-10-06T00:37:01.147Z,10.76
2022-10-06T00:40:09.176Z,10.82
2022-10-06T00:43:39.953Z,10.83
2022-10-06T00:46:51.019Z,10.83
2022-10-06T00:49:55.119Z,10.76
2022-10-06T00:52:57.854Z,10.67
2022-10-06T00:56:00.128Z,10.72
2022-10-06T00:59:02.366Z,10.70
2022-10-06T01:02:21.030Z,10.74
2022-10-06T01:05:28.618Z,10.69
2022-10-06T01:08:32.026Z,10.61
2022-10-06T01:11:36.220Z,10.62
2022-10-06T01:14:39.324Z,10.62
2022-10-06T01:17:59.178Z,10.64
2022-10-06T01:21:07.466Z,10.62
2022-10-06T01:24:09.991Z,10.49
2022-10-06T01:27:13.427Z,10.45
2022-10-06T01:30:17.842Z,10.56
2022-10-06T01:33:21.335Z,10.53
2022-10-06T01:36:24.377Z,10.50
2022-10-06T01:39:26.992Z,10.52
2022-10-06T01:42:32.229Z,10.51
2022-10-06T01:45:34.620Z,10.49
2022-10-06T01:48:37.130Z,10.43
2022-10-06T01:51:39.104Z,10.42
2022-10-06T01:54:41.347Z,10.45
2022-10-06T01:57:43.744Z,10.43
2022-10-06T02:00:47.860Z,10.48
2022-10-06T02:03:50.105Z,10.49
2022-10-06T02:06:55.385Z,10.44
2022-10-06T02:09:57.460Z,10.46
2022-10-06T02:12:59.827Z,10.49
2022-10-06T02:16:02.409Z,10.48
2022-10-06T02:19:04.700Z,10.43
2022-10-06T02:22:06.713Z,10.42
2022-10-06T02:25:09.439Z,10.44
2022-10-06T02:28:12.360Z,10.40
2022-10-06T02:31:15.006Z,10.33
2022-10-06T02:34:17.295Z,10.34
2022-10-06T02:37:19.664Z,10.31
2022-10-06T02:40:22.061Z,10.27
2022-10-06T02:43:24.601Z,10.31
2022-10-06T02:46:27.008Z,10.32
2022-10-06T02:49:30.018Z,10.36
2022-10-06T02:52:34.611Z,10.38
2022-10-06T02:55:36.982Z,10.37
2022-10-06T02:58:42.989Z,10.29
2022-10-06T03:01:48.820Z,10.34
2022-10-06T03:04:53.234Z,10.32
2022-10-06T03:07:55.798Z,10.36
2022-10-06T03:11:02.566Z,10.33
2022-10-06T03:14:05.585Z,10.33
2022-10-06T03:17:11.158Z,10.24
2022-10-06T03:20:20.214Z,10.30
2022-10-06T03:23:22.341Z,10.28
2022-10-06T03:26:33.769Z,10.29
2022-10-06T03:29:35.915Z,10.22
2022-10-06T03:32:39.420Z,10.10
2022-10-06T03:35:43.768Z,10.15
2022-10-06T03:38:46.510Z,10.14
2022-10-06T03:41:48.729Z,10.17
2022-10-06T03:44:50.949Z,10.14
2022-10-06T03:47:55.454Z,10.18
2022-10-06T03:50:59.602Z,10.18
2022-10-06T03:54:03.139Z,10.08
2022-10-06T03:57:07.464Z,10.05
2022-10-06T04:00:12.490Z,10.08
2022-10-06T04:03:19.541Z,10.07
2022-10-06T04:06:22.950Z,10.06
2022-10-06T04:09:25.281Z,10.12
2022-10-06T04:12:27.428Z,10.15
2022-10-06T04:15:31.242Z,10.04
2022-10-06T04:18:33.727Z,10.11
2022-10-06T04:21:37.217Z,10.11
2022-10-06T04:24:41.373Z,10.08
2022-10-06T04:27:45.187Z,10.12
2022-10-06T04:30:57.662Z,10.05
2022-10-06T04:34:01.341Z,10.04
2022-10-06T04:37:04.608Z,10.01
2022-10-06T04:40:08.332Z,10.09
2022-10-06T04:43:11.883Z,10.07
2022-10-06T04:46:38.000Z,10.02
2022-10-06T04:49:37.461Z,9.99
2022-10-06T04:52:40.394Z,9.97
2022-10-06T04:55:42.420Z,10.04
2022-10-06T04:58:48.178Z,10.00
2022-10-06T05:01:51.147Z,10.08
2022-10-06T05:04:53.620Z,10.06
2022-10-06T05:07:57.973Z,10.02
2022-10-06T05:11:06.280Z,10.04
2022-10-06T05:14:08.581Z,10.07
2022-10-06T05:17:14.114Z,10.08
2022-10-06T05:20:16.551Z,10.04
2022-10-06T05:23:19.069Z,10.01
2022-10-06T05:26:24.680Z,9.94
2022-10-06T05:29:28.772Z,10.16
2022-10-06T05:32:35.807Z,10.15
2022-10-06T05:35:39.108Z,10.20
2022-10-06T05:38:42.267Z,10.19
2022-10-06T05:41:44.707Z,10.22
2022-10-06T05:44:48.492Z,10.26
2022-10-06T05:47:51.965Z,10.34
2022-10-06T05:51:02.408Z,10.37
2022-10-06T05:54:05.703Z,10.41
2022-10-06T05:57:08.580Z,10.49
2022-10-06T06:00:11.604Z,10.56
2022-10-06T06:03:14.978Z,10.57
2022-10-06T06:06:39.232Z,10.65
2022-10-06T06:09:45.144Z,10.65
2022-10-06T06:12:47.851Z,10.81
2022-10-06T06:16:13.909Z,10.91
2022-10-06T06:19:16.688Z,11.01
2022-10-06T06:22:20.790Z,11.11
2022-10-06T06:25:25.136Z,11.29
2022-10-06T06:28:31.394Z,11.36
2022-10-06T06:31:36.422Z,11.54
2022-10-06T06:34:38.510Z,11.68
2022-10-06T06:37:42.690Z,11.78
2022-10-06T06:40:44.696Z,11.95
2022-10-06T06:43:50.075Z,11.98
2022-10-06T06:47:04.754Z,12.16
2022-10-06T06:50:10.516Z,12.12
2022-10-06T06:53:16.216Z,12.24
2022-10-06T06:56:23.899Z,12.34
2022-10-06T06:59:26.169Z,12.38
2022-10-06T07:02:30.882Z,12.40
2022-10-06T07:05:33.736Z,12.48
2022-10-06T07:08:39.391Z,12.56
2022-10-06T07:11:41.449Z,12.65
2022-10-06T07:15:05.742Z,12.67
2022-10-06T07:18:36.656Z,12.75
2022-10-06T07:21:59.356Z,12.96
2022-10-06T07:25:08.361Z,13.12
2022-10-06T07:28:17.244Z,13.20
2022-10-06T07:31:19.960Z,13.32
2022-10-06T07:34:23.465Z,13.35
2022-10-06T07:37:26.037Z,13.49
2022-10-06T07:40:28.740Z,13.52
2022-10-06T07:43:31.004Z,13.64
2022-10-06T07:46:34.763Z,13.72
2022-10-06T07:49:56.163Z,13.92
2022-10-06T07:53:08.620Z,14.02
2022-10-06T07:56:15.851Z,14.17
2022-10-06T07:59:23.077Z,14.24
2022-10-06T08:02:30.186Z,14.40
2022-10-06T08:05:35.279Z,14.55
2022-10-06T08:08:37.929Z,14.67
2022-10-06T08:11:40.636Z,14.87
2022-10-06T08:14:42.860Z,15.05
2022-10-06T08:17:45.432Z,15.20
2022-10-06T08:20:47.613Z,15.45
2022-10-06T08:23:51.107Z,15.65
2022-10-06T08:26:53.244Z,15.75
2022-10-06T08:29:55.985Z,16.06
2022-10-06T08:32:58.504Z,16.37
2022-10-06T08:36:28.311Z,16.47
2022-10-06T08:39:32.933Z,16.69
2022-10-06T08:43:02.378Z,16.93
2022-10-06T08:46:04.808Z,17.13
2022-10-06T08:49:18.115Z,17.39
2022-10-06T08:52:34.271Z,17.71
2022-10-06T08:55:47.836Z,17.67
2022-10-06T08:59:04.186Z,17.51
2022-10-06T09:02:32.438Z,17.39
2022-10-06T09:05:35.050Z,17.36
2022-10-06T09:08:54.106Z,17.58
2022-10-06T09:12:06.831Z,17.88
2022-10-06T09:15:15.009Z,18.03
2022-10-06T09:18:20.076Z,17.84
2022-10-06T09:21:39.302Z,18.13
2022-10-06T09:24:49.507Z,18.35
2022-10-06T09:27:58.619Z,18.66
2022-10-06T09:31:04.138Z,18.84
2022-10-06T09:34:45.651Z,19.08
2022-10-06T09:38:08.150Z,19.01
2022-10-06T09:41:12.083Z,19.21
2022-10-06T09:44:25.300Z,19.40
2022-10-06T09:47:34.758Z,19.77
2022-10-06T09:50:36.802Z,20.04
2022-10-06T09:53:39.704Z,20.46
2022-10-06T09:56:43.254Z,20.57
2022-10-06T09:59:46.989Z,20.29
2022-10-06T10:03:05.742Z,20.26
2022-10-06T10:06:09.136Z,20.03
2022-10-06T10:09:21.326Z,20.00
2022-10-06T10:12:29.917Z,19.96
2022-10-06T10:15:54.450Z,19.97
2022-10-06T10:18:57.182Z,19.81
2022-10-06T10:22:00.117Z,19.75
2022-10-06T10:25:21.459Z,19.53
2022-10-06T10:28:42.040Z,19.58
2022-10-06T10:32:21.660Z,19.85
2022-10-06T10:35:30.944Z,19.96
2022-10-06T10:38:40.997Z,20.05
2022-10-06T10:41:47.912Z,19.91
2022-10-06T10:44:57.730Z,19.66
2022-10-06T10:48:13.737Z,19.61
2022-10-06T10:51:25.110Z,19.46
2022-10-06T10:54:53.303Z,19.28
2022-10-06T10:57:59.510Z,19.21
2022-10-06T11:01:26.263Z,19.14
2022-10-06T11:04:28.709Z,19.30
2022-10-06T11:07:55.792Z,19.23
2022-10-06T11:11:00.683Z,19.28
2022-10-06T11:14:08.389Z,19.33
2022-10-06T11:17:25.088Z,19.63
2022-10-06T11:20:50.831Z,19.73
2022-10-06T11:24:20.472Z,19.74
2022-10-06T11:28:02.052Z,19.65
2022-10-06T11:31:23.193Z,19.54
2022-10-06T11:34:25.742Z,19.58
2022-10-06T11:37:41.008Z,19.37
2022-10-06T11:41:09.900Z,19.26
2022-10-06T11:44:15.854Z,19.20
2022-10-06T11:47:34.988Z,19.24
2022-10-06T11:50:41.851Z,19.40
2022-10-06T11:53:44.915Z,19.60
2022-10-06T11:56:48.377Z,19.65
2022-10-06T11:59:55.277Z,19.65
2022-10-06T12:03:35.848Z,19.67
2022-10-06T12:06:46.938Z,19.69
2022-10-06T12:09:52.299Z,19.64
2022-10-06T12:13:31.808Z,19.62
2022-10-06T12:20:49.624Z,19.39
2022-10-06T12:24:24.549Z,19.32
2022-10-06T12:27:53.684Z,19.34
2022-10-06T12:31:14.569Z,19.36
2022-10-06T12:35:03.353Z,19.34
2022-10-06T12:38:26.567Z,19.27
2022-10-06T12:42:05.977Z,19.14
2022-10-06T12:45:16.866Z,19.05
2022-10-06T12:48:28.261Z,19.02
2022-10-06T12:51:42.140Z,19.11
2022-10-06T12:54:58.935Z,19.40
2022-10-06T12:58:01.841Z,19.66
2022-10-06T13:01:12.262Z,19.95
2022-10-06T13:04:41.310Z,20.18
2022-10-06T13:08:03.205Z,20.30
2022-10-06T13:11:28.098Z,20.51
2022-10-06T13:14:30.104Z,20.56
2022-10-06T13:17:32.323Z,20.49
2022-10-06T13:20:40.117Z,20.57
2022-10-06T13:23:43.252Z,20.50
2022-10-06T13:26:45.846Z,20.49
2022-10-06T13:29:48.387Z,20.45
2022-10-06T13:32:54.466Z,20.11
2022-10-06T13:35:58.019Z,20.12
2022-10-06T13:39:00.610Z,20.19
2022-10-06T13:42:08.316Z,20.08
2022-10-06T13:45:14.461Z,19.89
2022-10-06T13:48:20.827Z,19.86
2022-10-06T13:51:25.750Z,19.90
2022-10-06T13:55:01.380Z,20.04
2022-10-06T13:58:06.813Z,20.08
2022-10-06T14:01:12.269Z,20.20
2022-10-06T14:04:17.121Z,20.24
2022-10-06T14:07:19.335Z,20.30
2022-10-06T14:13:32.897Z,20.35
2022-10-06T14:16:34.987Z,20.04
2022-10-06T14:19:40.699Z,20.02
2022-10-06T14:22:42.738Z,19.82
2022-10-06T14:25:44.964Z,19.39
2022-10-06T14:28:53.022Z,19.08
2022-10-06T14:31:55.293Z,18.89
2022-10-06T14:34:57.338Z,18.78
2022-10-06T14:37:59.703Z,18.91
2022-10-06T14:41:02.994Z,18.93
2022-10-06T14:44:08.829Z,18.96
2022-10-06T14:47:11.062Z,19.00
2022-10-06T14:50:13.538Z,19.04
2022-10-06T14:53:17.176Z,19.07
2022-10-06T14:56:19.780Z,19.03
2022-10-06T14:59:21.926Z,19.06
2022-10-06T15:02:24.173Z,18.89
2022-10-06T15:05:26.436Z,18.73
2022-10-06T15:08:30.955Z,18.68
2022-10-06T15:11:33.474Z,18.68
2022-10-06T15:14:39.745Z,18.67
2022-10-06T15:17:42.354Z,18.52
2022-10-06T15:20:47.460Z,18.39
2022-10-06T15:23:55.579Z,18.33
2022-10-06T15:27:19.186Z,18.35
2022-10-06T15:30:23.302Z,18.11
2022-10-06T15:33:38.606Z,17.93
2022-10-06T15:36:43.761Z,17.83
2022-10-06T15:39:46.866Z,17.74
2022-10-06T15:42:50.071Z,17.64
2022-10-06T15:45:55.451Z,17.64
2022-10-06T15:49:01.088Z,17.40
2022-10-06T15:52:05.060Z,17.34
2022-10-06T15:55:10.549Z,17.29
2022-10-06T15:58:12.942Z,17.16
2022-10-06T16:01:34.909Z,17.13
2022-10-06T16:04:38.820Z,17.11
2022-10-06T16:07:40.838Z,17.00
2022-10-06T16:10:49.672Z,16.89
2022-10-06T16:13:52.411Z,16.88
2022-10-06T16:20:15.246Z,16.64
2022-10-06T16:23:17.616Z,16.54
2022-10-06T16:26:20.464Z,16.58
2022-10-06T16:29:22.805Z,16.49
2022-10-06T16:32:24.903Z,16.48
2022-10-06T16:35:27.221Z,16.43
2022-10-06T16:38:29.231Z,16.28
2022-10-06T16:41:31.528Z,16.19
2022-10-06T16:44:33.879Z,16.09
2022-10-06T16:47:36.009Z,16.00
2022-10-06T16:50:37.978Z,15.90
2022-10-06T16:53:45.919Z,15.81
2022-10-06T16:56:52.095Z,15.58
2022-10-06T16:59:54.461Z,15.42
2022-10-06T17:02:56.577Z,15.29
2022-10-06T17:06:06.213Z,15.13
2022-10-06T17:09:14.251Z,15.04
2022-10-06T17:12:16.638Z,14.91
2022-10-06T17:15:18.951Z,14.81
2022-10-06T17:18:21.345Z,14.68
2022-10-06T17:21:44.422Z,14.61
2022-10-06T17:24:46.155Z,14.47
2022-10-06T17:27:48.511Z,14.32
2022-10-06T17:30:59.155Z,14.24
2022-10-06T17:34:12.188Z,14.12
2022-10-06T17:37:14.713Z,13.90
2022-10-06T17:40:16.792Z,13.77
2022-10-06T17:43:20.760Z,13.67
2022-10-06T17:46:23.164Z,13.58
2022-10-06T17:49:27.140Z,13.43
2022-10-06T17:52:30.503Z,13.30
2022-10-06T17:55:36.108Z,13.16
2022-10-06T17:58:39.973Z,13.07
2022-10-06T18:01:44.404Z,12.98
2022-10-06T18:04:49.934Z,12.92
2022-10-06T18:07:52.275Z,12.82
2022-10-06T18:11:13.019Z,12.77
2022-10-06T18:14:17.804Z,12.62
2022-10-06T18:17:20.603Z,12.46
2022-10-06T18:20:23.040Z,12.37
2022-10-06T18:23:25.943Z,12.29
2022-10-06T18:26:28.321Z,12.22
2022-10-06T18:29:35.448Z,12.14
2022-10-06T18:34:46.795Z,12.05
2022-10-06T18:36:12.212Z,11.98
2022-10-06T18:39:14.882Z,11.92
2022-10-06T18:42:16.907Z,11.82
2022-10-06T18:45:39.524Z,11.66
2022-10-06T18:49:00.199Z,11.61
2022-10-06T18:52:02.471Z,11.48
2022-10-06T18:55:04.975Z,11.39
2022-10-06T18:58:07.678Z,11.27
2022-10-06T19:01:10.802Z,11.22
2022-10-06T19:04:15.323Z,11.17
2022-10-06T19:07:17.315Z,11.10
2022-10-06T19:10:19.606Z,11.05
2022-10-06T19:13:22.512Z,10.97
2022-10-06T19:16:25.074Z,10.88
2022-10-06T19:19:28.141Z,10.65
2022-10-06T19:22:31.263Z,10.55
2022-10-06T19:25:33.277Z,10.45
2022-10-06T19:28:36.517Z,10.35
2022-10-06T19:31:41.886Z,10.32
2022-10-06T19:34:44.893Z,10.26
2022-10-06T19:37:47.295Z,10.19
2022-10-06T19:40:49.941Z,10.15
2022-10-06T19:43:53.147Z,10.05
2022-10-06T19:46:55.812Z,10.00
2022-10-06T19:50:02.055Z,9.86
2022-10-06T19:53:06.307Z,9.82
2022-10-06T19:56:08.553Z,9.78
2022-10-06T19:59:18.423Z,9.74
2022-10-06T20:02:20.523Z,9.70
2022-10-06T20:05:23.027Z,9.63
2022-10-06T20:08:25.103Z,9.57
2022-10-06T20:11:27.683Z,9.47
2022-10-06T20:14:29.893Z,9.43
2022-10-06T20:17:32.146Z,9.38
2022-10-06T20:20:34.231Z,9.29
2022-10-06T20:23:36.572Z,9.20
2022-10-06T20:26:41.108Z,9.14
2022-10-06T20:29:43.615Z,9.08
2022-10-06T20:32:45.727Z,8.99
2022-10-06T20:35:47.947Z,8.97
2022-10-06T20:39:08.602Z,8.94
2022-10-06T20:42:15.222Z,8.89
2022-10-06T20:45:17.626Z,8.85
2022-10-06T20:48:20.181Z,8.81
2022-10-06T20:51:27.536Z,8.74
2022-10-06T20:54:34.754Z,8.63
2022-10-06T20:57:37.172Z,8.56
2022-10-06T21:00:39.510Z,8.54
2022-10-06T21:03:54.678Z,8.42
2022-10-06T21:06:57.277Z,8.37
2022-10-06T21:09:59.361Z,8.35
2022-10-06T21:13:01.668Z,8.31
2022-10-06T21:16:04.554Z,8.26
2022-10-06T21:19:09.181Z,8.20
2022-10-06T21:22:11.342Z,8.15
2022-10-06T21:25:13.978Z,8.14
2022-10-06T21:28:16.139Z,8.06
2022-10-06T21:31:21.062Z,8.04
2022-10-06T21:34:23.076Z,8.00
2022-10-06T21:37:26.590Z,7.95
2022-10-06T21:40:28.622Z,7.89
2022-10-06T21:43:30.862Z,7.87
2022-10-06T21:46:34.341Z,7.86
2022-10-06T21:49:36.654Z,7.83
2022-10-06T21:52:38.661Z,7.79
2022-10-06T21:55:40.923Z,7.74
2022-10-06T21:58:51.253Z,7.66
2022-10-06T22:01:53.707Z,7.66
2022-10-06T22:04:55.783Z,7.55
2022-10-06T22:07:58.058Z,7.51
2022-10-06T22:11:15.019Z,7.49
2022-10-06T22:14:18.841Z,7.47
2022-10-06T22:17:20.949Z,7.44
2022-10-06T22:20:23.380Z,7.38
2022-10-06T22:23:25.384Z,7.35
2022-10-06T22:26:29.195Z,7.31
2022-10-06T22:29:31.272Z,7.24
2022-10-06T22:32:33.527Z,7.18
2022-10-06T22:35:35.530Z,7.17
2022-10-06T22:38:38.302Z,7.15
2022-10-06T22:41:40.611Z,7.10
2022-10-06T22:44:42.876Z,7.07
2022-10-06T22:47:45.344Z,7.01
2022-10-06T22:50:49.190Z,6.96
2022-10-06T22:53:58.180Z,6.98
2022-10-06T22:57:00.669Z,6.93
2022-10-06T23:00:03.073Z,6.89
2022-10-06T23:03:07.289Z,6.87
2022-10-06T23:06:12.344Z,6.79
2022-10-06T23:09:14.689Z,6.74
2022-10-06T23:12:16.805Z,6.73
2022-10-06T23:15:19.107Z,6.62
2022-10-06T23:18:21.140Z,6.61
2022-10-06T23:21:27.417Z,6.56
2022-10-06T23:24:29.694Z,6.51
2022-10-06T23:27:32.022Z,6.47
2022-10-06T23:30:35.956Z,6.42
2022-10-06T23:33:38.880Z,6.42
2022-10-06T23:36:40.894Z,6.34
2022-10-06T23:39:43.234Z,6.25
2022-10-06T23:42:45.289Z,6.25
2022-10-06T23:45:47.908Z,6.29
2022-10-06T23:48:49.998Z,6.31
2022-10-06T23:51:52.573Z,6.30
2022-10-06T23:54:54.561Z,6.24
2022-10-06T23:57:56.842Z,6.24
